createdAt,value
2023-11-28T00:00:17.001Z,984.1
2023-11-28T00:01:18.749Z,984
2023-11-28T00:02:21.051Z,984
2023-11-28T00:03:21.799Z,984
2023-11-28T00:04:23.871Z,984
2023-11-28T00:05:24.808Z,984
2023-11-28T00:06:25.806Z,984
2023-11-28T00:07:27.777Z,984
2023-11-28T00:08:28.734Z,984
2023-11-28T00:09:32.331Z,983.9
2023-11-28T00:10:32.789Z,983.9
2023-11-28T00:11:34.849Z,983.8
2023-11-28T00:12:37.794Z,983.9
2023-11-28T00:13:38.760Z,983.9
2023-11-28T00:14:39.777Z,983.9
2023-11-28T00:15:40.748Z,983.9
2023-11-28T00:16:42.094Z,983.8
2023-11-28T00:17:43.868Z,983.8
2023-11-28T00:18:44.897Z,983.8
2023-11-28T00:19:45.790Z,983.8
2023-11-28T00:20:46.751Z,983.8
2023-11-28T00:21:49.100Z,983.7
2023-11-28T00:22:48.797Z,983.8
2023-11-28T00:23:49.754Z,983.7
2023-11-28T00:24:54.705Z,983.7
2023-11-28T00:25:56.786Z,983.7
2023-11-28T00:26:58.798Z,983.7
2023-11-28T00:27:59.781Z,983.6
2023-11-28T00:29:01.826Z,983.1
2023-11-28T00:30:02.867Z,983.5
2023-11-28T00:31:03.783Z,983.6
2023-11-28T00:32:07.578Z,983.7
2023-11-28T00:33:08.798Z,983.7
2023-11-28T00:34:11.825Z,983.7
2023-11-28T00:35:13.765Z,983.7
2023-11-28T00:36:15.011Z,983.7
2023-11-28T00:37:15.766Z,983.7
2023-11-28T00:38:18.055Z,983.6
2023-11-28T00:39:19.825Z,983.6
2023-11-28T00:40:20.809Z,983.7
2023-11-28T00:41:21.831Z,983.6
2023-11-28T00:42:22.773Z,983.6
2023-11-28T00:43:24.812Z,983.5
2023-11-28T00:44:26.995Z,983.6
2023-11-28T00:45:30.568Z,983.6
2023-11-28T00:46:32.118Z,983.6
2023-11-28T00:47:32.907Z,983.6
2023-11-28T00:48:37.976Z,983.6
2023-11-28T00:49:38.774Z,983.6
2023-11-28T00:50:39.836Z,983.6
2023-11-28T00:51:40.791Z,983.5
2023-11-28T00:52:41.786Z,983.6
2023-11-28T00:53:46.561Z,983.5
2023-11-28T00:54:47.779Z,983.5
2023-11-28T00:55:51.474Z,983.4
2023-11-28T00:56:51.752Z,983.4
2023-11-28T00:57:52.773Z,983.4
2023-11-28T00:58:54.875Z,983.4
2023-11-28T00:59:58.797Z,983.4
2023-11-28T01:00:59.791Z,983.5
2023-11-28T01:02:01.108Z,983.4
2023-11-28T01:03:01.820Z,983.4
2023-11-28T01:04:06.585Z,983.4
2023-11-28T01:05:07.803Z,983.4
2023-11-28T01:06:09.852Z,983.4
2023-11-28T01:07:11.830Z,983.4
2023-11-28T01:08:12.778Z,983.5
2023-11-28T01:09:13.766Z,983.5
2023-11-28T01:10:15.068Z,983.4
2023-11-28T01:11:16.100Z,983.5
2023-11-28T01:12:18.833Z,983.4
2023-11-28T01:13:19.821Z,982.4
2023-11-28T01:14:20.787Z,983.3
2023-11-28T01:15:21.778Z,983.3
2023-11-28T01:16:23.982Z,983.3
2023-11-28T01:17:27.781Z,983.3
2023-11-28T01:18:33.991Z,983.3
2023-11-28T01:19:34.786Z,983.2
2023-11-28T01:20:35.786Z,983.3
2023-11-28T01:21:37.894Z,983.2
2023-11-28T01:22:39.923Z,983.2
2023-11-28T01:23:43.494Z,983.2
2023-11-28T01:24:45.969Z,983.1
2023-11-28T01:25:48.057Z,983.1
2023-11-28T01:26:49.834Z,983.1
2023-11-28T01:27:51.847Z,983.2
2023-11-28T01:28:54.090Z,983.1
2023-11-28T01:29:55.773Z,983.1
2023-11-28T01:30:56.769Z,983
2023-11-28T01:31:57.801Z,983.2
2023-11-28T01:32:59.890Z,983
2023-11-28T01:34:01.856Z,983
2023-11-28T01:35:05.475Z,983.1
2023-11-28T01:36:07.047Z,983
2023-11-28T01:37:10.833Z,982.9
2023-11-28T01:38:11.892Z,982.9
2023-11-28T01:39:12.775Z,983
2023-11-28T01:40:15.073Z,983
2023-11-28T01:41:16.860Z,982.9
2023-11-28T01:42:20.631Z,982.9
2023-11-28T01:43:21.813Z,983
2023-11-28T01:44:23.804Z,982
2023-11-28T01:45:27.267Z,982.7
2023-11-28T01:46:28.880Z,982.9
2023-11-28T01:47:30.105Z,982.9
2023-11-28T01:48:31.829Z,982.9
2023-11-28T01:49:33.075Z,982.8
2023-11-28T01:50:33.837Z,982.8
2023-11-28T01:51:34.798Z,982.9
2023-11-28T01:52:36.836Z,982.9
2023-11-28T01:53:38.832Z,982.8
2023-11-28T01:54:39.833Z,982.8
2023-11-28T01:55:41.838Z,982.7
2023-11-28T01:56:45.834Z,982.8
2023-11-28T01:57:46.812Z,982.8
2023-11-28T01:58:48.094Z,982.7
2023-11-28T01:59:48.795Z,982.8
2023-11-28T02:00:50.872Z,982.6
2023-11-28T02:01:51.827Z,982.7
2023-11-28T02:02:52.954Z,982.6
2023-11-28T02:03:54.133Z,982.6
2023-11-28T02:04:55.798Z,982.7
2023-11-28T02:05:58.086Z,982.6
2023-11-28T02:06:59.111Z,982.6
2023-11-28T02:08:02.780Z,982.6
2023-11-28T02:09:04.054Z,982.5
2023-11-28T02:10:04.790Z,982.5
2023-11-28T02:11:05.796Z,982.5
2023-11-28T02:12:07.810Z,982.5
2023-11-28T02:13:11.442Z,982.4
2023-11-28T02:14:09.810Z,982.4
2023-11-28T02:15:11.822Z,982.4
2023-11-28T02:16:12.851Z,982.4
2023-11-28T02:17:13.835Z,982.4
2023-11-28T02:18:15.031Z,982.3
2023-11-28T02:19:16.792Z,982.4
2023-11-28T02:20:18.060Z,982.4
2023-11-28T02:21:19.813Z,982.3
2023-11-28T02:22:20.846Z,982.3
2023-11-28T02:23:25.786Z,982.3
2023-11-28T02:24:27.800Z,982.3
2023-11-28T02:25:29.083Z,982.3
2023-11-28T02:26:30.804Z,981.1
2023-11-28T02:27:31.818Z,981.9
2023-11-28T02:28:32.843Z,982.1
2023-11-28T02:29:34.889Z,982.3
2023-11-28T02:30:38.649Z,982.2
2023-11-28T02:31:39.972Z,982.2
2023-11-28T02:32:40.938Z,982.1
2023-11-28T02:36:43.077Z,982.1
2023-11-28T02:37:43.889Z,982.1
2023-11-28T02:38:44.811Z,982.1
2023-11-28T02:39:47.101Z,982
2023-11-28T02:40:47.799Z,982.1
2023-11-28T02:41:52.561Z,982
2023-11-28T02:42:53.816Z,982
2023-11-28T02:43:55.913Z,982.1
2023-11-28T02:44:59.499Z,982.1
2023-11-28T02:45:59.911Z,982.1
2023-11-28T02:47:01.114Z,982.1
2023-11-28T02:48:02.889Z,982
2023-11-28T02:49:06.338Z,982
2023-11-28T02:50:06.850Z,982
2023-11-28T02:51:07.816Z,982
2023-11-28T02:52:09.118Z,982
2023-11-28T02:53:09.846Z,982
2023-11-28T02:54:13.335Z,982
2023-11-28T02:55:15.088Z,982
2023-11-28T02:56:17.862Z,981.9
2023-11-28T02:57:21.344Z,981.9
2023-11-28T02:58:21.844Z,981.9
2023-11-28T02:59:23.132Z,981.8
2023-11-28T03:00:24.268Z,981.8
2023-11-28T03:01:24.876Z,981.8
2023-11-28T03:02:26.162Z,981.8
2023-11-28T03:03:27.816Z,981.8
2023-11-28T03:04:28.832Z,981.7
2023-11-28T03:05:29.847Z,981.7
2023-11-28T03:06:31.976Z,981.8
2023-11-28T03:07:32.882Z,981.7
2023-11-28T03:08:33.843Z,981.7
2023-11-28T03:09:34.846Z,981.7
2023-11-28T03:10:36.973Z,981.7
2023-11-28T03:11:37.842Z,981.7
2023-11-28T03:12:38.815Z,981.7
2023-11-28T03:13:40.838Z,981.7
2023-11-28T03:14:41.863Z,981.7
2023-11-28T03:15:43.853Z,981.2
2023-11-28T03:16:47.772Z,981.6
2023-11-28T03:17:48.831Z,981.6
2023-11-28T03:18:49.908Z,981.7
2023-11-28T03:19:50.837Z,981.7
2023-11-28T03:20:51.850Z,981.7
2023-11-28T03:21:52.866Z,981.7
2023-11-28T03:22:54.232Z,981.7
2023-11-28T03:23:54.852Z,981.7
2023-11-28T03:24:56.941Z,981.6
2023-11-28T03:25:57.864Z,981.7
2023-11-28T03:26:59.853Z,981.7
2023-11-28T03:28:00.956Z,981.7
2023-11-28T03:29:01.846Z,981.7
2023-11-28T03:30:02.939Z,981.7
2023-11-28T03:31:03.881Z,981.6
2023-11-28T03:32:04.888Z,981.7
2023-11-28T03:33:05.863Z,981.6
2023-11-28T03:34:07.872Z,981.6
2023-11-28T03:35:08.928Z,981.6
2023-11-28T03:36:10.102Z,981.5
2023-11-28T03:37:11.840Z,981.5
2023-11-28T03:38:12.881Z,981.5
2023-11-28T03:39:13.851Z,981.5
2023-11-28T03:40:15.971Z,981.5
2023-11-28T03:41:16.849Z,981.5
2023-11-28T03:42:20.414Z,981.5
2023-11-28T03:43:20.863Z,981.4
2023-11-28T03:44:21.827Z,981.5
2023-11-28T03:45:23.967Z,981.5
2023-11-28T03:46:26.928Z,981.5
2023-11-28T03:47:27.851Z,981.4
2023-11-28T03:48:28.865Z,981.4
2023-11-28T03:49:30.949Z,981.5
2023-11-28T03:50:31.849Z,981.5
2023-11-28T03:51:32.971Z,981.4
2023-11-28T03:52:37.001Z,981.4
2023-11-28T03:53:39.879Z,981.4
2023-11-28T03:54:41.060Z,981.4
2023-11-28T03:55:41.917Z,981.4
2023-11-28T03:56:42.855Z,981.3
2023-11-28T03:57:43.853Z,981.4
2023-11-28T03:58:46.014Z,981.3
2023-11-28T03:59:46.855Z,981.3
2023-11-28T04:00:48.133Z,981.3
2023-11-28T04:01:49.983Z,981.3
2023-11-28T04:02:51.105Z,981.4
2023-11-28T04:03:52.136Z,981.3
2023-11-28T04:04:53.948Z,981.2
2023-11-28T04:05:54.834Z,981.2
2023-11-28T04:06:56.982Z,981.2
2023-11-28T04:07:58.939Z,981.2
2023-11-28T04:08:59.892Z,981.2
2023-11-28T04:10:00.942Z,981.4
2023-11-28T04:11:01.860Z,981.2
2023-11-28T04:12:02.895Z,981.3
2023-11-28T04:13:03.872Z,981.2
2023-11-28T04:14:05.102Z,981.2
2023-11-28T04:15:08.530Z,981.2
2023-11-28T04:16:08.892Z,981.2
2023-11-28T04:17:11.919Z,981.2
2023-11-28T04:18:14.875Z,981.2
2023-11-28T04:19:17.949Z,981.2
2023-11-28T04:20:20.899Z,981.2
2023-11-28T04:21:21.853Z,981.2
2023-11-28T04:22:22.864Z,981.4
2023-11-28T04:23:23.889Z,980.7
2023-11-28T04:24:24.917Z,981
2023-11-28T04:25:26.894Z,981.2
2023-11-28T04:26:30.630Z,981.2
2023-11-28T04:27:32.896Z,980.6
2023-11-28T04:28:35.919Z,981
2023-11-28T04:29:37.890Z,981.3
2023-11-28T04:30:39.004Z,981.2
2023-11-28T04:31:40.005Z,981.2
2023-11-28T04:32:41.024Z,981.3
2023-11-28T04:33:41.851Z,981.2
2023-11-28T04:34:42.871Z,981.1
2023-11-28T04:35:43.891Z,981.2
2023-11-28T04:36:44.847Z,981.1
2023-11-28T04:37:45.938Z,981.1
2023-11-28T04:38:46.871Z,980.9
2023-11-28T04:39:47.841Z,981.1
2023-11-28T04:40:48.890Z,981.2
2023-11-28T04:41:49.847Z,981.2
2023-11-28T04:42:50.960Z,980.6
2023-11-28T04:43:52.114Z,981.1
2023-11-28T04:44:53.920Z,981.1
2023-11-28T04:45:54.871Z,981.1
2023-11-28T04:46:55.962Z,981.1
2023-11-28T04:47:56.894Z,981.1
2023-11-28T04:48:57.856Z,981
2023-11-28T04:49:58.870Z,981.1
2023-11-28T04:50:59.865Z,980.2
2023-11-28T04:52:00.947Z,980.8
2023-11-28T04:53:02.984Z,981
2023-11-28T04:54:03.989Z,981
2023-11-28T04:55:06.010Z,981
2023-11-28T04:56:06.958Z,979.8
2023-11-28T04:57:07.969Z,980.7
2023-11-28T04:58:08.916Z,980.9
2023-11-28T04:59:10.217Z,981
2023-11-28T05:00:13.077Z,981
2023-11-28T05:01:13.934Z,981
2023-11-28T05:02:15.143Z,981
2023-11-28T05:03:19.957Z,981
2023-11-28T05:04:22.012Z,981
2023-11-28T05:05:23.418Z,980.9
2023-11-28T05:06:24.176Z,980.9
2023-11-28T05:07:24.929Z,980.9
2023-11-28T05:08:27.007Z,980.9
2023-11-28T05:09:27.911Z,980.9
2023-11-28T05:10:28.924Z,981
2023-11-28T05:11:29.964Z,981
2023-11-28T05:12:30.922Z,980.9
2023-11-28T05:13:31.921Z,980.9
2023-11-28T05:14:32.927Z,980.8
2023-11-28T05:15:33.964Z,980.8
2023-11-28T05:16:41.378Z,980.9
2023-11-28T05:17:37.034Z,980.8
2023-11-28T05:18:39.156Z,980.8
2023-11-28T05:19:40.036Z,980.8
2023-11-28T05:20:40.976Z,980
2023-11-28T05:21:41.954Z,980.7
2023-11-28T05:22:42.955Z,980.8
2023-11-28T05:23:45.960Z,980.8
2023-11-28T05:24:56.136Z,980.8
2023-11-28T05:25:57.175Z,980.9
2023-11-28T05:27:01.111Z,980.9
2023-11-28T05:27:59.971Z,980.9
2023-11-28T05:29:02.253Z,980.8
2023-11-28T05:30:03.071Z,980.8
2023-11-28T05:31:03.969Z,980.4
2023-11-28T05:32:04.965Z,980.7
2023-11-28T05:33:06.001Z,980.8
2023-11-28T05:34:06.931Z,980.8
2023-11-28T05:35:08.149Z,980.8
2023-11-28T05:36:08.946Z,980.8
2023-11-28T05:37:09.942Z,980.9
2023-11-28T05:38:10.963Z,980.8
2023-11-28T05:39:11.940Z,980.8
2023-11-28T05:40:12.938Z,980.8
2023-11-28T05:41:13.997Z,980.8
2023-11-28T05:42:14.953Z,980.7
2023-11-28T05:43:15.938Z,980.8
2023-11-28T05:44:17.047Z,980.8
2023-11-28T05:45:17.956Z,980.8
2023-11-28T05:46:19.092Z,980.7
2023-11-28T05:47:20.232Z,980.7
2023-11-28T05:48:22.086Z,980.8
2023-11-28T05:49:22.943Z,980.8
2023-11-28T05:50:27.812Z,980.8
2023-11-28T05:51:28.984Z,980.8
2023-11-28T05:52:29.993Z,980.8
2023-11-28T05:53:30.987Z,980.9
2023-11-28T05:54:32.033Z,980.9
2023-11-28T05:55:35.010Z,981
2023-11-28T05:56:39.528Z,981
2023-11-28T05:57:43.729Z,981
2023-11-28T05:58:45.032Z,981
2023-11-28T05:59:46.007Z,981
2023-11-28T06:00:46.996Z,981
2023-11-28T06:01:48.043Z,981
2023-11-28T06:02:50.165Z,981
2023-11-28T06:03:52.356Z,980.9
2023-11-28T06:04:53.047Z,981
2023-11-28T06:05:53.962Z,980.9
2023-11-28T06:06:55.045Z,980.9
2023-11-28T06:07:59.846Z,981
2023-11-28T06:09:03.947Z,981
2023-11-28T06:10:06.065Z,981
2023-11-28T06:11:10.100Z,981
2023-11-28T06:12:11.192Z,980.9
2023-11-28T06:13:11.970Z,980.9
2023-11-28T06:14:12.965Z,980.9
2023-11-28T06:15:14.111Z,980.9
2023-11-28T06:16:16.171Z,981
2023-11-28T06:17:19.255Z,980.9
2023-11-28T06:18:20.088Z,980.9
2023-11-28T06:19:21.105Z,980.9
2023-11-28T06:20:23.004Z,980.9
2023-11-28T06:21:31.005Z,981
2023-11-28T06:22:33.169Z,981
2023-11-28T06:23:33.965Z,981
2023-11-28T06:24:36.078Z,981
2023-11-28T06:25:36.979Z,981
2023-11-28T06:26:38.226Z,981
2023-11-28T06:27:39.167Z,981
2023-11-28T06:28:40.006Z,981.1
2023-11-28T06:29:40.976Z,981.2
2023-11-28T06:30:42.031Z,981.1
2023-11-28T06:31:43.299Z,980.6
2023-11-28T06:32:44.046Z,980.6
2023-11-28T06:33:45.999Z,981
2023-11-28T06:34:50.246Z,981.1
2023-11-28T06:35:51.079Z,981.1
2023-11-28T06:36:51.957Z,981
2023-11-28T06:37:53.015Z,981.1
2023-11-28T06:38:55.102Z,981
2023-11-28T06:39:55.966Z,981.1
2023-11-28T06:40:56.998Z,981.1
2023-11-28T06:41:58.010Z,981.1
2023-11-28T06:42:58.986Z,981.1
2023-11-28T06:44:03.232Z,981.1
2023-11-28T06:45:01.026Z,981.2
2023-11-28T06:46:01.990Z,981.1
2023-11-28T06:47:03.095Z,981.1
2023-11-28T06:48:04.046Z,981.1
2023-11-28T06:49:06.219Z,981.1
2023-11-28T06:50:09.081Z,981.1
2023-11-28T06:51:09.968Z,981.1
2023-11-28T06:52:10.971Z,980.4
2023-11-28T06:53:12.041Z,980.9
2023-11-28T06:54:12.995Z,980.9
2023-11-28T06:55:14.000Z,981
2023-11-28T06:56:15.087Z,981
2023-11-28T06:57:15.981Z,981
2023-11-28T06:58:16.971Z,981
2023-11-28T06:59:17.979Z,981
2023-11-28T07:00:19.059Z,981
2023-11-28T07:01:20.021Z,981
2023-11-28T07:02:21.063Z,981
2023-11-28T07:03:22.001Z,981
2023-11-28T07:04:23.101Z,981.1
2023-11-28T07:05:23.990Z,980.1
2023-11-28T07:06:25.995Z,980.9
2023-11-28T07:07:28.062Z,980.5
2023-11-28T07:08:31.830Z,981.1
2023-11-28T07:09:33.007Z,981.1
2023-11-28T07:10:34.023Z,981.1
2023-11-28T07:11:35.997Z,981
2023-11-28T07:12:38.015Z,981.1
2023-11-28T07:13:39.026Z,981.2
2023-11-28T07:14:40.039Z,981.1
2023-11-28T07:15:41.232Z,981.2
2023-11-28T07:16:42.085Z,981.2
2023-11-28T07:17:42.997Z,981.2
2023-11-28T07:18:44.022Z,981.2
2023-11-28T07:19:47.127Z,981.3
2023-11-28T07:20:50.215Z,981.3
2023-11-28T07:21:54.587Z,981.3
2023-11-28T07:22:56.264Z,981.3
2023-11-28T07:23:59.813Z,981.4
2023-11-28T07:25:01.852Z,981.6
2023-11-28T07:26:02.047Z,981.4
2023-11-28T07:27:02.996Z,981.4
2023-11-28T07:28:04.049Z,981.4
2023-11-28T07:29:07.997Z,981.4
2023-11-28T07:30:09.017Z,981.4
2023-11-28T07:31:11.467Z,981.4
2023-11-28T07:32:15.966Z,981.5
2023-11-28T07:33:20.050Z,981.5
2023-11-28T07:34:23.809Z,981.5
2023-11-28T07:35:24.994Z,981.5
2023-11-28T07:36:27.712Z,981.5
2023-11-28T07:37:29.230Z,981.5
2023-11-28T07:38:30.238Z,981.5
2023-11-28T07:39:33.020Z,981.5
2023-11-28T07:40:34.007Z,981.5
2023-11-28T07:41:35.204Z,981.5
2023-11-28T07:42:37.018Z,981.5
2023-11-28T07:43:38.043Z,981.5
2023-11-28T07:44:39.036Z,981.5
2023-11-28T07:45:40.079Z,981.6
2023-11-28T07:46:44.019Z,981.5
2023-11-28T07:47:46.045Z,981.5
2023-11-28T07:48:47.013Z,981.5
2023-11-28T07:49:48.038Z,981.5
2023-11-28T07:50:49.031Z,981.5
2023-11-28T07:51:50.238Z,981.5
2023-11-28T07:52:51.016Z,981.5
2023-11-28T07:53:52.013Z,981.4
2023-11-28T07:54:53.315Z,981.5
2023-11-28T07:55:56.134Z,981.5
2023-11-28T07:56:57.034Z,981.4
2023-11-28T07:57:58.022Z,981.6
2023-11-28T07:58:58.995Z,981.6
2023-11-28T08:00:00.072Z,981.5
2023-11-28T08:01:04.610Z,981.6
2023-11-28T08:02:06.349Z,981.5
2023-11-28T08:03:08.068Z,981.6
2023-11-28T08:04:10.043Z,981.5
2023-11-28T08:05:15.285Z,981.8
2023-11-28T08:06:15.119Z,981.6
2023-11-28T08:07:16.053Z,981.6
2023-11-28T08:08:18.269Z,981.6
2023-11-28T08:09:19.222Z,981.6
2023-11-28T08:10:20.024Z,981.8
2023-11-28T08:11:21.039Z,981.6
2023-11-28T08:12:23.062Z,981.6
2023-11-28T08:13:25.392Z,981.6
2023-11-28T08:14:34.963Z,981.6
2023-11-28T08:15:37.009Z,981.6
2023-11-28T08:16:39.224Z,981.6
2023-11-28T08:17:40.088Z,981.7
2023-11-28T08:18:42.395Z,981.7
2023-11-28T08:19:42.074Z,981.7
2023-11-28T08:20:43.005Z,981.6
2023-11-28T08:21:44.011Z,981.6
2023-11-28T08:22:45.303Z,981.7
2023-11-28T08:23:46.020Z,981.7
2023-11-28T08:24:48.336Z,981.7
2023-11-28T08:25:49.129Z,981.7
2023-11-28T08:26:50.096Z,981.8
2023-11-28T08:27:51.011Z,981.9
2023-11-28T08:28:55.837Z,981.7
2023-11-28T08:29:57.291Z,981.6
2023-11-28T08:30:59.185Z,981.6
2023-11-28T08:32:00.311Z,981.7
2023-11-28T08:33:03.775Z,981.7
2023-11-28T08:34:06.455Z,981.7
2023-11-28T08:35:08.182Z,981.7
2023-11-28T08:36:10.051Z,981.7
2023-11-28T08:37:12.092Z,981.9
2023-11-28T08:38:13.334Z,981.8
2023-11-28T08:39:14.133Z,981.8
2023-11-28T08:40:15.018Z,981.7
2023-11-28T08:41:16.065Z,981.8
2023-11-28T08:42:18.149Z,981.9
2023-11-28T08:43:19.113Z,981.9
2023-11-28T08:44:20.217Z,981.8
2023-11-28T08:45:22.078Z,981.8
2023-11-28T08:46:24.044Z,981.8
2023-11-28T08:47:25.088Z,981.8
2023-11-28T08:48:27.178Z,981.8
2023-11-28T08:49:28.021Z,981.8
2023-11-28T08:50:34.058Z,981.8
2023-11-28T08:51:36.093Z,981.8
2023-11-28T08:52:38.273Z,981.8
2023-11-28T08:53:39.454Z,981.9
2023-11-28T08:54:40.149Z,982
2023-11-28T08:55:43.127Z,981.9
2023-11-28T08:56:46.639Z,981.8
2023-11-28T08:57:48.095Z,981.9
2023-11-28T08:58:50.099Z,981.9
2023-11-28T08:59:52.081Z,981.8
2023-11-28T09:00:55.198Z,981.8
2023-11-28T09:01:56.129Z,981.8
2023-11-28T09:02:59.392Z,981.8
2023-11-28T09:04:00.243Z,981.8
2023-11-28T09:05:01.257Z,981.8
2023-11-28T09:06:03.150Z,981.8
2023-11-28T09:07:05.436Z,981.8
2023-11-28T09:08:09.193Z,981.8
2023-11-28T09:09:11.121Z,981.8
2023-11-28T09:10:15.772Z,981.8
2023-11-28T09:11:18.455Z,981.9
2023-11-28T09:12:19.139Z,981.8
2023-11-28T09:13:20.088Z,981.8
2023-11-28T09:14:22.120Z,981.8
2023-11-28T09:15:23.061Z,981.8
2023-11-28T09:16:24.083Z,981.8
2023-11-28T09:17:25.143Z,981.8
2023-11-28T09:18:26.105Z,981.8
2023-11-28T09:19:28.242Z,981.8
2023-11-28T09:20:29.073Z,981.8
2023-11-28T09:21:31.137Z,981.9
2023-11-28T09:22:32.128Z,981.8
2023-11-28T09:23:40.906Z,981.8
2023-11-28T09:24:45.619Z,981.7
2023-11-28T09:25:50.322Z,981.8
2023-11-28T09:26:49.169Z,981.7
2023-11-28T09:27:50.160Z,981.7
2023-11-28T09:28:51.212Z,981.7
2023-11-28T09:29:54.154Z,981.8
2023-11-28T09:30:54.185Z,981.8
2023-11-28T09:31:55.437Z,981.8
2023-11-28T09:32:57.304Z,981.9
2023-11-28T09:33:58.047Z,981.9
2023-11-28T09:34:59.141Z,981.9
2023-11-28T09:36:01.175Z,981.8
2023-11-28T09:37:03.184Z,981.7
2023-11-28T09:38:05.327Z,981.9
2023-11-28T09:39:06.077Z,981.7
2023-11-28T09:40:08.219Z,981.8
2023-11-28T09:41:09.379Z,981.8
2023-11-28T09:42:11.131Z,981.7
2023-11-28T09:43:13.158Z,981.8
2023-11-28T09:44:14.247Z,981.7
2023-11-28T09:45:18.150Z,981.8
2023-11-28T09:46:20.170Z,981.8
2023-11-28T09:47:22.222Z,981.8
2023-11-28T09:48:23.184Z,981.6
2023-11-28T09:49:26.158Z,981.7
2023-11-28T09:50:30.304Z,981.7
2023-11-28T09:51:31.187Z,981.7
2023-11-28T09:52:34.361Z,981.7
2023-11-28T09:53:35.368Z,981.7
2023-11-28T09:54:36.055Z,981.7
2023-11-28T09:55:37.155Z,981.7
2023-11-28T09:56:38.146Z,981.7
2023-11-28T09:57:40.153Z,981.7
2023-11-28T09:58:42.448Z,981.7
2023-11-28T09:59:45.745Z,981.7
2023-11-28T10:00:47.123Z,981.7
2023-11-28T10:01:49.492Z,981.7
2023-11-28T10:02:50.433Z,981.7
2023-11-28T10:03:52.092Z,981.7
2023-11-28T10:04:53.205Z,981.6
2023-11-28T10:05:54.081Z,981.7
2023-11-28T10:06:55.067Z,981.6
2023-11-28T10:07:56.302Z,981.7
2023-11-28T10:08:58.157Z,981.7
2023-11-28T10:09:59.065Z,981.7
2023-11-28T10:11:01.393Z,981.7
2023-11-28T10:12:02.065Z,981.8
2023-11-28T10:13:03.071Z,981.7
2023-11-28T10:14:04.140Z,981.7
2023-11-28T10:15:08.850Z,981.6
2023-11-28T10:16:10.085Z,981.6
2023-11-28T10:17:14.020Z,981.6
2023-11-28T10:18:15.348Z,981.6
2023-11-28T10:19:23.000Z,981.6
2023-11-28T10:20:24.356Z,981.6
2023-11-28T10:21:25.313Z,981.6
2023-11-28T10:22:26.107Z,981.6
2023-11-28T10:23:27.120Z,981.6
2023-11-28T10:24:31.041Z,981.6
2023-11-28T10:25:32.095Z,979.9
2023-11-28T10:26:34.551Z,981.2
2023-11-28T10:27:36.367Z,981.5
2023-11-28T10:28:39.815Z,981.6
2023-11-28T10:29:41.124Z,981.7
2023-11-28T10:30:44.413Z,981.6
2023-11-28T10:31:45.171Z,981.6
2023-11-28T10:32:46.143Z,981.6
2023-11-28T10:33:48.233Z,981.6
2023-11-28T10:34:49.380Z,981.7
2023-11-28T10:35:51.390Z,981.6
2023-11-28T10:36:52.133Z,981.7
2023-11-28T10:37:53.091Z,981.6
2023-11-28T10:38:56.141Z,981.6
2023-11-28T10:39:57.103Z,981.6
2023-11-28T10:40:58.133Z,981.7
2023-11-28T10:41:59.095Z,981.7
2023-11-28T10:43:00.157Z,981.7
2023-11-28T10:44:01.180Z,981.6
2023-11-28T10:45:03.162Z,981.6
2023-11-28T10:46:04.133Z,981.6
2023-11-28T10:47:06.268Z,981.6
2023-11-28T10:48:09.186Z,981.6
2023-11-28T10:49:09.272Z,981.7
2023-11-28T10:50:14.112Z,981.6
2023-11-28T10:51:15.071Z,981.7
2023-11-28T10:52:17.127Z,981.7
2023-11-28T10:53:18.157Z,981.7
2023-11-28T10:54:19.106Z,981.7
2023-11-28T10:55:20.119Z,981.7
2023-11-28T10:56:22.695Z,981.7
2023-11-28T10:57:24.137Z,981.7
2023-11-28T10:58:26.382Z,981.8
2023-11-28T10:59:27.096Z,981.7
2023-11-28T11:00:28.130Z,981.7
2023-11-28T11:01:29.834Z,981.7
2023-11-28T11:02:31.215Z,981.7
2023-11-28T11:03:32.405Z,981.7
2023-11-28T11:04:34.144Z,981.7
2023-11-28T11:05:36.093Z,981.7
2023-11-28T11:06:37.176Z,981.8
2023-11-28T11:07:38.118Z,981.8
2023-11-28T11:08:41.729Z,981.8
2023-11-28T11:09:43.475Z,981.8
2023-11-28T11:10:45.253Z,981.8
2023-11-28T11:11:47.612Z,981.7
2023-11-28T11:12:48.350Z,981.8
2023-11-28T11:13:49.093Z,981.9
2023-11-28T11:14:51.570Z,981.8
2023-11-28T11:15:53.160Z,981.8
2023-11-28T11:16:54.313Z,981.9
2023-11-28T11:17:56.148Z,981.9
2023-11-28T11:18:58.116Z,981.9
2023-11-28T11:19:59.148Z,981.8
2023-11-28T11:21:03.322Z,981.9
2023-11-28T11:22:06.272Z,981.9
2023-11-28T11:23:07.434Z,981.8
2023-11-28T11:24:08.396Z,981.9
2023-11-28T11:25:09.131Z,981.9
2023-11-28T11:26:13.161Z,981.9
2023-11-28T11:27:14.113Z,981.8
2023-11-28T11:28:19.103Z,981.8
2023-11-28T11:29:20.168Z,981.9
2023-11-28T11:30:25.236Z,981.9
2023-11-28T11:31:26.146Z,981.9
2023-11-28T11:32:27.475Z,981.9
2023-11-28T11:33:28.126Z,981.9
2023-11-28T11:34:31.222Z,981.9
2023-11-28T11:35:33.613Z,981.9
2023-11-28T11:36:38.059Z,981.8
2023-11-28T11:37:40.152Z,981.9
2023-11-28T11:38:42.440Z,981.9
2023-11-28T11:39:43.154Z,982
2023-11-28T11:40:45.232Z,982
2023-11-28T11:41:47.215Z,982.1
2023-11-28T11:42:48.100Z,982
2023-11-28T11:43:49.208Z,982.1
2023-11-28T11:44:50.351Z,982
2023-11-28T11:45:52.095Z,982.1
2023-11-28T11:46:53.254Z,982
2023-11-28T11:47:54.214Z,982
2023-11-28T11:48:57.319Z,982
2023-11-28T11:49:59.223Z,981.9
2023-11-28T11:51:00.416Z,982
2023-11-28T11:52:04.820Z,982
2023-11-28T11:53:06.233Z,982
2023-11-28T11:54:10.757Z,982
2023-11-28T11:55:12.325Z,982.1
2023-11-28T11:56:13.235Z,982
2023-11-28T11:57:19.369Z,982
2023-11-28T11:58:20.163Z,982.1
2023-11-28T11:59:22.264Z,982.1
2023-11-28T12:00:24.150Z,982.1
2023-11-28T12:01:26.449Z,982.1
2023-11-28T12:02:27.246Z,982.2
2023-11-28T12:03:28.207Z,982.2
2023-11-28T12:04:30.424Z,982.2
2023-11-28T12:05:34.720Z,982.2
2023-11-28T12:06:35.151Z,982.2
2023-11-28T12:07:36.127Z,982.2
2023-11-28T12:08:38.308Z,982.2
2023-11-28T12:09:39.391Z,982.2
2023-11-28T12:10:40.153Z,982.2
2023-11-28T12:11:41.160Z,982.2
2023-11-28T12:12:44.151Z,982.3
2023-11-28T12:13:45.191Z,982.2
2023-11-28T12:14:49.182Z,982.2
2023-11-28T12:15:51.236Z,982.3
2023-11-28T12:16:53.273Z,982.3
2023-11-28T12:17:55.548Z,982.3
2023-11-28T12:18:57.117Z,982.3
2023-11-28T12:19:58.171Z,982.3
2023-11-28T12:21:01.784Z,982.3
2023-11-28T12:22:03.165Z,982.4
2023-11-28T12:23:04.146Z,982.2
2023-11-28T12:24:05.153Z,982.2
2023-11-28T12:25:06.124Z,982.3
2023-11-28T12:26:09.269Z,982.4
2023-11-28T12:27:10.361Z,982.4
2023-11-28T12:28:12.179Z,982.3
2023-11-28T12:29:13.235Z,982.4
2023-11-28T12:30:18.570Z,982.4
2023-11-28T12:31:19.186Z,982.4
2023-11-28T12:32:20.265Z,982.4
2023-11-28T12:33:21.380Z,982.5
2023-11-28T12:34:22.395Z,982.4
2023-11-28T12:35:23.166Z,982.4
2023-11-28T12:36:26.740Z,982.5
2023-11-28T12:37:28.129Z,982.5
2023-11-28T12:38:30.249Z,982.7
2023-11-28T12:39:31.212Z,982.5
2023-11-28T12:40:33.163Z,982.5
2023-11-28T12:41:34.391Z,982.6
2023-11-28T12:42:36.398Z,982.6
2023-11-28T12:43:37.163Z,982.6
2023-11-28T12:44:38.157Z,982.6
2023-11-28T12:45:40.217Z,982.6
2023-11-28T12:46:42.237Z,982.7
2023-11-28T12:47:43.197Z,982.7
2023-11-28T12:48:45.482Z,982.7
2023-11-28T12:49:47.234Z,982.7
2023-11-28T12:50:52.358Z,982.7
2023-11-28T12:51:53.152Z,982.7
2023-11-28T12:52:54.167Z,982.9
2023-11-28T12:53:55.137Z,982.8
2023-11-28T12:54:56.235Z,982.8
2023-11-28T12:55:57.411Z,982.9
2023-11-28T12:56:58.174Z,982.8
2023-11-28T12:58:00.184Z,982.8
2023-11-28T12:59:01.275Z,982.9
2023-11-28T13:00:02.483Z,982.9
2023-11-28T13:01:03.207Z,982.8
2023-11-28T13:02:04.213Z,982.9
2023-11-28T13:03:07.249Z,982.9
2023-11-28T13:04:10.556Z,982.9
2023-11-28T13:05:13.460Z,982.9
2023-11-28T13:06:15.161Z,982.9
2023-11-28T13:07:22.020Z,982.9
2023-11-28T13:08:23.342Z,982.9
2023-11-28T13:09:25.220Z,983
2023-11-28T13:10:28.190Z,982.9
2023-11-28T13:11:30.401Z,983
2023-11-28T13:12:35.926Z,983
2023-11-28T13:13:42.427Z,983.1
2023-11-28T13:14:46.355Z,983
2023-11-28T13:15:49.699Z,983.1
2023-11-28T13:16:56.329Z,983.1
2023-11-28T13:17:55.256Z,983.1
2023-11-28T13:18:56.227Z,983.1
2023-11-28T13:19:57.440Z,983.1
2023-11-28T13:20:59.269Z,983.1
2023-11-28T13:22:00.204Z,983
2023-11-28T13:23:03.958Z,983.1
2023-11-28T13:24:07.967Z,983.1